Station: Kunanyi / Mount Wellington  

  Atmospheric Gas Attenuation - ITU Rec 676-11   ----------------- dB/100km -----------------
Date Time Temp RH % AH g/m3 Dew Point Wind Direction Speed kph Gust kph Barometer mB Rainfall Since 9am 24GHz 47GHz 76GHz 122GHz 134GHz 241GHz
08/05 12:30 2.1 100 5.6 2.1 1013.1 0 13.6 24.2 32.9 85.9 70.7 240.0
08/05 12:20 1.9 100 5.53 1.9 1013.1 0 13.5 24.2 32.7 85.3 70.0 237.2
08/05 12:10 1.9 100 5.53 1.9 1013.1 0 13.5 24.2 32.7 85.3 70.0 237.2
08/05 12:00 2.1 100 5.6 2.1 1013.1 0 13.6 24.2 32.9 85.9 70.7 240.0
08/05 11:50 1.9 100 5.53 1.9 1013.1 0 13.5 24.2 32.7 85.3 70.0 237.2
08/05 11:40 1.9 100 5.53 1.9 1013.1 0 13.5 24.2 32.7 85.3 70.0 237.2
08/05 11:30 1.8 100 5.49 1.8 1013.1 0 13.4 24.1 32.5 85.0 69.5 235.6
08/05 11:20 1.9 100 5.53 1.9 1013.1 0 13.5 24.2 32.7 85.3 70.0 237.2
08/05 11:10 1.7 100 5.45 1.7 1013.1 0 13.3 24.1 32.4 84.6 69.1 234.0
08/05 11:00 1.5 100 5.38 1.5 1013.1 0 13.2 24.0 32.2 84.1 68.3 231.2
08/05 10:50 1.5 100 5.38 1.5 1013.1 0 13.2 24.0 32.2 84.1 68.3 231.2
08/05 10:40 1.3 100 5.3 1.3 1013.1 0 13.0 24.0 32.0 83.4 67.3 227.9
08/05 10:30 1.4 100 5.34 1.4 1013.1 0 13.1 24.0 32.1 83.7 67.8 229.6
08/05 10:20 1.3 100 5.3 1.3 1013.1 0 13.0 24.0 32.0 83.4 67.3 227.9
08/05 10:10 1.2 100 5.27 1.2 1013.1 0 12.9 23.9 31.9 83.2 67.0 226.8
08/05 10:00 1.1 100 5.23 1.1 1013.1 0 12.9 23.9 31.7 82.8 66.6 225.1
08/05 09:50 1 100 5.2 1 1013.1 0 12.8 23.9 31.7 82.6 66.2 224.0
08/05 09:40 0.9 100 5.16 0.9 1013.1 0 12.7 23.8 31.5 82.3 65.8 222.3
08/05 09:30 1.1 100 5.23 1.1 1013.1 0 12.9 23.9 31.7 82.8 66.6 225.1
08/05 09:20 1 100 5.2 1 1013.1 0 12.8 23.9 31.7 82.6 66.2 224.0
08/05 09:10 0.8 100 5.13 0.8 1013.1 0 12.7 23.8 31.5 82.1 65.4 221.2
08/05 09:00 0.8 100 5.13 0.8 1013.1 0 12.7 23.8 31.5 82.1 65.4 221.2
08/05 08:50 0.7 100 5.09 0.7 1013.1 9.4 12.6 23.8 31.3 81.7 65.0 219.5
08/05 08:40 0.7 100 5.09 0.7 1013.1 9.4 12.6 23.8 31.3 81.7 65.0 219.5
08/05 08:30 0.7 100 5.09 0.7 1013.1 9.4 12.6 23.8 31.3 81.7 65.0 219.5
08/05 08:20 0.6 100 5.06 0.6 1013.1 9.4 12.5 23.7 31.2 81.5 64.7 218.4
08/05 08:10 0.7 100 5.09 0.7 1013.1 9.4 12.6 23.8 31.3 81.7 65.0 219.5
08/05 08:00 0.8 100 5.13 0.8 1013.1 9.2 12.7 23.8 31.5 82.1 65.4 221.2
08/05 07:50 0.7 100 5.09 0.7 1013.1 9.2 12.6 23.8 31.3 81.7 65.0 219.5
08/05 07:40 0.7 100 5.09 0.7 1013.1 9.2 12.6 23.8 31.3 81.7 65.0 219.5
08/05 07:30 0.6 100 5.06 0.6 1013.1 9.2 12.5 23.7 31.2 81.5 64.7 218.4
08/05 07:20 0.7 100 5.09 0.7 1013.1 9.2 12.6 23.8 31.3 81.7 65.0 219.5
08/05 07:10 0.7 100 5.09 0.7 1013.1 9.2 12.6 23.8 31.3 81.7 65.0 219.5
08/05 07:00 0.6 100 5.06 0.6 1013.1 9.2 12.5 23.7 31.2 81.5 64.7 218.4
08/05 06:50 0.7 100 5.09 0.7 1013.1 9 12.6 23.8 31.3 81.7 65.0 219.5
08/05 06:40 0.7 100 5.09 0.7 1013.1 9 12.6 23.8 31.3 81.7 65.0 219.5
08/05 06:30 0.7 100 5.09 0.7 1013.1 9 12.6 23.8 31.3 81.7 65.0 219.5
08/05 06:20 0.7 100 5.09 0.7 1013.1 9 12.6 23.8 31.3 81.7 65.0 219.5
08/05 06:10 0.7 100 5.09 0.7 1013.1 9 12.6 23.8 31.3 81.7 65.0 219.5
08/05 06:00 0.6 100 5.06 0.6 1013.1 9 12.5 23.7 31.2 81.5 64.7 218.4
08/05 05:50 0.6 100 5.06 0.6 1013.1 8.8 12.5 23.7 31.2 81.5 64.7 218.4
08/05 05:40 0.7 100 5.09 0.7 1013.1 8.8 12.6 23.8 31.3 81.7 65.0 219.5
08/05 05:30 0.8 100 5.13 0.8 1013.1 8.6 12.7 23.8 31.5 82.1 65.4 221.2
08/05 05:20 0.9 100 5.16 0.9 1013.1 8.6 12.7 23.8 31.5 82.3 65.8 222.3
08/05 05:10 0.9 100 5.16 0.9 1013.1 8.6 12.7 23.8 31.5 82.3 65.8 222.3
08/05 05:00 0.6 100 5.06 0.6 1013.1 8.6 12.5 23.7 31.2 81.5 64.7 218.4
08/05 04:50 0.8 100 5.13 0.8 1013.1 8.4 12.7 23.8 31.5 82.1 65.4 221.2
08/05 04:40 0.9 100 5.16 0.9 1013.1 8.4 12.7 23.8 31.5 82.3 65.8 222.3
08/05 04:30 0.9 100 5.16 0.9 1013.1 8.4 12.7 23.8 31.5 82.3 65.8 222.3
08/05 04:20 0.9 100 5.16 0.9 1013.1 8.2 12.7 23.8 31.5 82.3 65.8 222.3
08/05 04:10 1 100 5.2 1 1013.1 8.2 12.8 23.9 31.7 82.6 66.2 224.0
08/05 04:00 1 100 5.2 1 1013.1 8.2 12.8 23.9 31.7 82.6 66.2 224.0
08/05 03:50 1 100 5.2 1 1013.1 8 12.8 23.9 31.7 82.6 66.2 224.0
08/05 03:40 1 100 5.2 1 1013.1 8 12.8 23.9 31.7 82.6 66.2 224.0
08/05 03:30 0.9 100 5.16 0.9 1013.1 8 12.7 23.8 31.5 82.3 65.8 222.3
08/05 03:20 1.1 100 5.23 1.1 1013.1 8 12.9 23.9 31.7 82.8 66.6 225.1
08/05 03:10 1.2 100 5.27 1.2 1013.1 8 12.9 23.9 31.9 83.2 67.0 226.8
08/05 03:00 1.2 100 5.27 1.2 1013.1 8 12.9 23.9 31.9 83.2 67.0 226.8
08/05 02:50 1.2 100 5.27 1.2 1013.1 8 12.9 23.9 31.9 83.2 67.0 226.8
08/05 02:40 1.3 100 5.3 1.3 1013.1 8 13.0 24.0 32.0 83.4 67.3 227.9
08/05 02:30 1.3 100 5.3 1.3 1013.1 8 13.0 24.0 32.0 83.4 67.3 227.9
08/05 02:20 1.3 100 5.3 1.3 1013.1 7.8 13.0 24.0 32.0 83.4 67.3 227.9
08/05 02:10 1.4 100 5.34 1.4 1013.1 7.8 13.1 24.0 32.1 83.7 67.8 229.6
08/05 02:00 1.5 100 5.38 1.5 1013.1 7.8 13.2 24.0 32.2 84.1 68.3 231.2
08/05 01:50 1.9 100 5.53 1.9 1013.1 7.8 13.5 24.2 32.7 85.3 70.0 237.2
08/05 01:40 2 100 5.56 2 1013.1 7.8 13.5 24.2 32.8 85.5 70.3 238.4
08/05 01:30 2 100 5.56 2 1013.1 7.8 13.5 24.2 32.8 85.5 70.3 238.4
08/05 01:20 2.3 100 5.68 2.3 1013.1 7.8 13.8 24.3 33.1 86.5 71.7 243.2
08/05 01:10 2.3 100 5.68 2.3 1013.1 7.4 13.8 24.3 33.1 86.5 71.7 243.2
08/05 01:00 2.2 100 5.64 2.2 1013.1 7.4 13.7 24.3 33.0 86.2 71.2 241.6
08/05 00:50 2.2 100 5.64 2.2 1013.1 7.4 13.7 24.3 33.0 86.2 71.2 241.6
08/05 00:40 2 100 5.56 2 1013.1 7.4 13.5 24.2 32.8 85.5 70.3 238.4
08/05 00:30 2 100 5.56 2 1013.1 7.4 13.5 24.2 32.8 85.5 70.3 238.4
08/05 00:20 2.2 100 5.64 2.2 1013.1 7.2 13.7 24.3 33.0 86.2 71.2 241.6
08/05 00:10 2.2 100 5.64 2.2 1013.1 7.2 13.7 24.3 33.0 86.2 71.2 241.6
08/05 00:00 2.2 100 5.64 2.2 1013.1 7.2 13.7 24.3 33.0 86.2 71.2 241.6
07/05 23:50 2.2 100 5.64 2.2 1013.1 7.2 13.7 24.3 33.0 86.2 71.2 241.6
07/05 23:40 2.4 100 5.72 2.4 1013.1 7.2 13.9 24.4 33.3 86.9 72.1 244.8
07/05 23:30 2.4 100 5.72 2.4 1013.1 7.2 13.9 24.4 33.3 86.9 72.1 244.8
07/05 23:20 2.7 100 5.83 2.7 1013.1 7.2 14.1 24.5 33.6 87.8 73.4 249.2
07/05 23:10 3 100 5.95 3 1013.1 7.2 14.4 24.6 34.0 88.8 74.7 254.0
07/05 23:00 3 100 5.95 3 1013.1 7 14.4 24.6 34.0 88.8 74.7 254.0
07/05 22:50 3 100 5.95 3 1013.1 6.8 14.4 24.6 34.0 88.8 74.7 254.0
07/05 22:40 3 100 5.95 3 1013.1 6.6 14.4 24.6 34.0 88.8 74.7 254.0
07/05 22:30 3 100 5.95 3 1013.1 6.2 14.4 24.6 34.0 88.8 74.7 254.0
07/05 22:20 3 100 5.95 3 1013.1 6 14.4 24.6 34.0 88.8 74.7 254.0
07/05 22:10 3 100 5.95 3 1013.1 5.8 14.4 24.6 34.0 88.8 74.7 254.0
07/05 22:00 2.9 100 5.91 2.9 1013.1 5.8 14.3 24.5 33.8 88.4 74.3 252.4
07/05 21:50 2.8 100 5.87 2.8 1013.1 5.4 14.2 24.5 33.7 88.1 73.8 250.8
07/05 21:40 2.7 100 5.83 2.7 1013.1 4.6 14.1 24.5 33.6 87.8 73.4 249.2
07/05 21:30 2.5 100 5.75 2.5 1013.1 4 13.9 24.4 33.3 87.1 72.4 246.0
07/05 21:20 2.3 100 5.68 2.3 1013.1 3.2 13.8 24.3 33.1 86.5 71.7 243.2
07/05 21:10 2.3 100 5.68 2.3 1013.1 3 13.8 24.3 33.1 86.5 71.7 243.2
07/05 21:00 2.2 100 5.64 2.2 1013.1 2.6 13.7 24.3 33.0 86.2 71.2 241.6
07/05 20:50 2 100 5.56 2 1013.1 2.6 13.5 24.2 32.8 85.5 70.3 238.4
07/05 20:40 2 100 5.56 2 1013.1 2.6 13.5 24.2 32.8 85.5 70.3 238.4
07/05 20:30 1.8 100 5.49 1.8 1013.1 2.2 13.4 24.1 32.5 85.0 69.5 235.6
07/05 20:20 1.6 100 5.41 1.6 1013.1 2.2 13.2 24.1 32.3 84.3 68.6 232.3
07/05 20:10 1.3 100 5.3 1.3 1013.1 2.2 13.0 24.0 32.0 83.4 67.3 227.9
07/05 20:00 1.1 100 5.23 1.1 1013.1 2.2 12.9 23.9 31.7 82.8 66.6 225.1

Last Refresh: 08-May-2026 12:08:00

Bureau of Meteorology